createdAt,value
2023-01-29T00:00:17.349Z,94.22
2023-01-29T00:02:45.958Z,93.90
2023-01-29T00:05:27.083Z,95.44
2023-01-29T00:07:57.528Z,95.50
2023-01-29T00:10:26.676Z,96.01
2023-01-29T00:12:55.192Z,96.27
2023-01-29T00:15:23.806Z,96.57
2023-01-29T00:17:52.008Z,97.25
2023-01-29T00:20:20.334Z,98.00
2023-01-29T00:22:48.796Z,97.62
2023-01-29T00:25:17.151Z,98.40
2023-01-29T00:27:45.272Z,98.63
2023-01-29T00:30:14.937Z,99.31
2023-01-29T00:32:43.844Z,99.72
2023-01-29T00:35:12.458Z,99.95
2023-01-29T00:37:40.957Z,100.00
2023-01-29T00:40:10.480Z,99.08
2023-01-29T00:42:57.528Z,98.25
2023-01-29T00:45:26.037Z,99.07
2023-01-29T00:47:54.419Z,98.14
2023-01-29T00:50:23.360Z,97.83
2023-01-29T00:52:52.941Z,98.21
2023-01-29T00:55:21.079Z,99.22
2023-01-29T00:57:50.463Z,99.81
2023-01-29T01:00:19.825Z,100.00
2023-01-29T01:03:06.668Z,99.72
2023-01-29T01:05:37.283Z,100.00
2023-01-29T01:08:25.570Z,100.00
2023-01-29T01:11:09.624Z,100.00
2023-01-29T01:13:37.703Z,100.00
2023-01-29T01:16:17.469Z,100.00
2023-01-29T01:18:45.702Z,100.00
2023-01-29T01:21:14.594Z,100.00
2023-01-29T01:23:43.703Z,100.00
2023-01-29T01:26:11.925Z,100.00
2023-01-29T01:28:40.724Z,100.00
2023-01-29T01:31:14.028Z,100.00
2023-01-29T01:33:42.588Z,100.00
2023-01-29T01:36:10.640Z,100.00
2023-01-29T01:38:44.931Z,100.00
2023-01-29T01:41:16.293Z,100.00
2023-01-29T01:44:29.524Z,100.00
2023-01-29T01:47:01.131Z,100.00
2023-01-29T01:49:30.149Z,100.00
2023-01-29T01:51:59.611Z,100.00
2023-01-29T01:54:31.646Z,100.00
2023-01-29T01:57:16.228Z,100.00
2023-01-29T01:59:54.424Z,100.00
2023-01-29T02:02:42.761Z,100.00
2023-01-29T02:05:32.681Z,100.00
2023-01-29T02:08:19.813Z,100.00
2023-01-29T02:10:49.983Z,100.00
2023-01-29T02:13:19.544Z,100.00
2023-01-29T02:15:48.936Z,100.00
2023-01-29T02:18:19.392Z,99.78
2023-01-29T02:21:25.615Z,100.00
2023-01-29T02:24:16.957Z,100.00
2023-01-29T02:27:00.864Z,100.00
2023-01-29T02:29:43.795Z,100.00
2023-01-29T02:32:54.765Z,100.00
2023-01-29T02:35:26.080Z,100.00
2023-01-29T02:38:02.180Z,100.00
2023-01-29T02:40:51.282Z,99.93
2023-01-29T02:43:44.637Z,100.00
2023-01-29T02:46:41.410Z,100.00
2023-01-29T02:49:36.293Z,100.00
2023-01-29T02:52:35.865Z,100.00
2023-01-29T02:55:16.053Z,100.00
2023-01-29T02:57:49.040Z,100.00
2023-01-29T03:00:41.468Z,100.00
2023-01-29T03:03:19.696Z,100.00
2023-01-29T03:06:08.933Z,100.00
2023-01-29T03:08:43.047Z,100.00
2023-01-29T03:11:14.936Z,100.00
2023-01-29T03:13:55.341Z,100.00
2023-01-29T03:16:39.244Z,100.00
2023-01-29T03:19:20.617Z,100.00
2023-01-29T03:21:59.857Z,100.00
2023-01-29T03:24:56.463Z,100.00
2023-01-29T03:27:50.066Z,100.00
2023-01-29T03:30:37.922Z,100.00
2023-01-29T03:33:11.611Z,100.00
2023-01-29T03:35:48.504Z,100.00
2023-01-29T03:38:17.966Z,100.00
2023-01-29T03:40:51.227Z,100.00
2023-01-29T03:43:37.612Z,100.00
2023-01-29T03:46:08.695Z,100.00
2023-01-29T03:48:45.712Z,100.00
2023-01-29T03:51:35.327Z,100.00
2023-01-29T03:54:40.024Z,100.00
2023-01-29T03:57:15.481Z,100.00
2023-01-29T04:00:09.065Z,100.00
2023-01-29T04:03:03.709Z,100.00
2023-01-29T04:05:43.642Z,100.00
2023-01-29T04:08:19.832Z,100.00
2023-01-29T04:10:51.189Z,100.00
2023-01-29T04:13:20.417Z,100.00
2023-01-29T04:15:56.816Z,100.00
2023-01-29T04:18:25.957Z,100.00
2023-01-29T04:20:55.904Z,100.00
2023-01-29T04:23:26.835Z,100.00
2023-01-29T04:26:08.009Z,100.00
2023-01-29T04:29:25.174Z,99.40
2023-01-29T04:32:11.237Z,99.16
2023-01-29T04:35:36.509Z,99.81
2023-01-29T04:38:23.870Z,99.93
2023-01-29T04:41:05.557Z,100.00
2023-01-29T04:43:55.304Z,100.00
2023-01-29T04:46:47.074Z,99.30
2023-01-29T04:49:30.155Z,98.42
2023-01-29T04:52:04.260Z,98.43
2023-01-29T04:54:41.468Z,98.96
2023-01-29T04:57:25.914Z,99.24
2023-01-29T05:00:13.024Z,98.87
2023-01-29T05:02:45.016Z,98.19
2023-01-29T05:05:16.731Z,97.37
2023-01-29T05:07:47.488Z,97.21
2023-01-29T05:10:20.355Z,97.65
2023-01-29T05:12:55.939Z,98.10
2023-01-29T05:15:32.114Z,97.71
2023-01-29T05:18:03.301Z,96.75
2023-01-29T05:20:34.662Z,95.61
2023-01-29T05:23:03.548Z,95.54
2023-01-29T05:25:34.129Z,95.95
2023-01-29T05:28:06.097Z,95.36
2023-01-29T05:30:37.724Z,94.91
2023-01-29T05:33:31.034Z,94.65
2023-01-29T05:36:00.421Z,95.29
2023-01-29T05:38:29.013Z,94.86
2023-01-29T05:40:59.217Z,94.48
2023-01-29T05:43:27.667Z,94.32
2023-01-29T05:46:00.735Z,93.47
2023-01-29T05:48:29.762Z,94.98
2023-01-29T05:51:02.641Z,94.26
2023-01-29T05:53:32.277Z,93.33
2023-01-29T05:56:05.192Z,94.46
2023-01-29T05:58:34.575Z,92.71
2023-01-29T06:01:18.015Z,93.28
2023-01-29T06:03:46.920Z,93.58
2023-01-29T06:06:15.212Z,94.41
2023-01-29T06:08:43.636Z,94.44
2023-01-29T06:11:13.533Z,94.64
2023-01-29T06:13:42.048Z,94.46
2023-01-29T06:16:11.857Z,94.28
2023-01-29T06:18:41.117Z,92.24
2023-01-29T06:21:11.854Z,90.78
2023-01-29T06:23:40.767Z,91.44
2023-01-29T06:26:12.240Z,92.03
2023-01-29T06:28:40.890Z,91.53
2023-01-29T06:31:37.774Z,89.31
2023-01-29T06:33:59.021Z,86.88
2023-01-29T06:36:27.237Z,88.04
2023-01-29T06:38:55.568Z,86.51
2023-01-29T06:41:25.717Z,86.07
2023-01-29T06:43:54.035Z,87.09
2023-01-29T06:46:22.272Z,87.42
2023-01-29T06:48:50.696Z,85.96
2023-01-29T06:51:18.929Z,85.62
2023-01-29T06:53:47.091Z,85.34
2023-01-29T06:56:15.621Z,86.69
2023-01-29T06:58:43.776Z,88.63
2023-01-29T07:01:25.389Z,89.29
2023-01-29T07:04:01.848Z,88.63
2023-01-29T07:06:30.802Z,87.92
2023-01-29T07:08:59.037Z,87.66
2023-01-29T07:11:27.568Z,88.16
2023-01-29T07:13:55.791Z,89.11
2023-01-29T07:16:25.101Z,89.88
2023-01-29T07:18:53.726Z,89.72
2023-01-29T07:21:22.000Z,90.74
2023-01-29T07:23:50.160Z,91.22
2023-01-29T07:26:19.392Z,90.51
2023-01-29T07:28:47.478Z,90.69
2023-01-29T07:31:15.833Z,88.42
2023-01-29T07:33:45.484Z,89.01
2023-01-29T07:36:14.749Z,88.95
2023-01-29T07:38:43.153Z,89.94
2023-01-29T07:41:11.954Z,89.49
2023-01-29T07:43:40.168Z,90.17
2023-01-29T07:46:08.511Z,90.31
2023-01-29T07:48:37.354Z,91.69
2023-01-29T07:51:05.624Z,91.56
2023-01-29T07:53:34.028Z,91.51
2023-01-29T07:56:02.645Z,91.89
2023-01-29T07:58:30.775Z,91.52
2023-01-29T08:00:58.998Z,91.87
2023-01-29T08:03:27.504Z,91.54
2023-01-29T08:05:57.637Z,90.59
2023-01-29T08:08:26.389Z,90.24
2023-01-29T08:10:55.102Z,88.01
2023-01-29T08:13:23.187Z,89.29
2023-01-29T08:15:51.343Z,87.85
2023-01-29T08:18:20.281Z,87.98
2023-01-29T08:20:48.360Z,88.55
2023-01-29T08:23:16.704Z,89.06
2023-01-29T08:25:45.364Z,87.36
2023-01-29T08:28:13.945Z,87.62
2023-01-29T08:30:44.090Z,88.11
2023-01-29T08:33:13.028Z,88.38
2023-01-29T08:35:41.342Z,88.17
2023-01-29T08:38:10.319Z,88.65
2023-01-29T08:40:39.188Z,89.84
2023-01-29T08:43:09.463Z,88.62
2023-01-29T08:45:40.369Z,87.46
2023-01-29T08:48:09.979Z,87.52
2023-01-29T08:50:38.691Z,88.36
2023-01-29T08:53:08.624Z,87.59
2023-01-29T08:55:39.992Z,87.78
2023-01-29T08:58:11.075Z,88.40
2023-01-29T09:00:40.153Z,88.57
2023-01-29T09:03:10.085Z,88.81
2023-01-29T09:05:40.769Z,88.73
2023-01-29T09:08:10.032Z,87.86
2023-01-29T09:10:38.366Z,86.79
2023-01-29T09:13:06.756Z,87.00
2023-01-29T09:15:35.756Z,85.91
2023-01-29T09:18:05.432Z,86.83
2023-01-29T09:20:33.923Z,85.98
2023-01-29T09:23:11.120Z,85.04
2023-01-29T09:25:39.370Z,85.35
2023-01-29T09:28:07.936Z,86.01
2023-01-29T09:30:38.218Z,84.75
2023-01-29T09:33:07.818Z,84.34
2023-01-29T09:35:36.446Z,84.67
2023-01-29T09:38:05.237Z,84.44
2023-01-29T09:40:48.614Z,84.13
2023-01-29T09:43:41.661Z,83.89
2023-01-29T09:46:33.090Z,83.82
2023-01-29T09:49:19.340Z,81.84
2023-01-29T09:51:53.120Z,81.96
2023-01-29T09:54:46.389Z,81.25
2023-01-29T09:57:49.398Z,82.85
2023-01-29T10:00:48.361Z,81.15
2023-01-29T10:03:46.877Z,79.99
2023-01-29T10:06:52.313Z,80.81
2023-01-29T10:09:42.477Z,79.99
2023-01-29T10:12:28.678Z,79.87
2023-01-29T10:15:19.253Z,79.87
2023-01-29T10:17:53.539Z,77.08
2023-01-29T10:20:40.538Z,77.13
2023-01-29T10:23:36.447Z,75.47
2023-01-29T10:26:05.058Z,76.51
2023-01-29T10:28:50.703Z,75.05
2023-01-29T10:31:31.843Z,76.36
2023-01-29T10:34:07.430Z,75.77
2023-01-29T10:36:44.212Z,77.28
2023-01-29T10:39:26.426Z,75.74
2023-01-29T10:42:01.826Z,76.21
2023-01-29T10:44:32.665Z,76.35
2023-01-29T10:47:35.028Z,77.69
2023-01-29T10:50:37.525Z,76.28
2023-01-29T10:53:39.887Z,76.79
2023-01-29T10:56:23.047Z,75.77
2023-01-29T10:58:55.965Z,77.29
2023-01-29T11:01:24.267Z,75.84
2023-01-29T11:04:04.710Z,75.11
2023-01-29T11:06:35.434Z,74.05
2023-01-29T11:09:25.337Z,74.51
2023-01-29T11:11:56.632Z,75.58
2023-01-29T11:14:30.042Z,74.28
2023-01-29T11:16:59.028Z,72.77
2023-01-29T11:19:42.902Z,73.86
2023-01-29T11:22:20.153Z,71.85
2023-01-29T11:25:10.097Z,71.37
2023-01-29T11:27:50.524Z,73.69
2023-01-29T11:30:24.680Z,71.69
2023-01-29T11:33:06.214Z,71.66
2023-01-29T11:35:35.733Z,70.78
2023-01-29T11:38:16.407Z,71.27
2023-01-29T11:40:45.589Z,71.33
2023-01-29T11:43:18.549Z,70.19
2023-01-29T11:45:51.803Z,70.01
2023-01-29T11:48:23.006Z,70.33
2023-01-29T11:50:58.860Z,69.67
2023-01-29T11:53:35.959Z,69.99
2023-01-29T11:56:16.349Z,69.96
2023-01-29T11:58:46.076Z,69.82
2023-01-29T12:01:23.638Z,68.42
2023-01-29T12:03:54.009Z,67.60
2023-01-29T12:06:32.770Z,68.48
2023-01-29T12:09:09.616Z,70.01
2023-01-29T12:11:38.566Z,70.05
2023-01-29T12:14:28.968Z,69.07
2023-01-29T12:17:08.646Z,69.90
2023-01-29T12:19:51.320Z,70.06
2023-01-29T12:22:47.808Z,69.69
2023-01-29T12:25:22.963Z,66.68
2023-01-29T12:28:31.839Z,67.09
2023-01-29T12:31:00.516Z,68.40
2023-01-29T12:33:51.581Z,68.54
2023-01-29T12:36:38.440Z,66.11
2023-01-29T12:39:08.956Z,66.46
2023-01-29T12:41:48.143Z,67.46
2023-01-29T12:44:25.865Z,67.37
2023-01-29T12:46:58.924Z,68.39
2023-01-29T12:49:32.266Z,66.51
2023-01-29T12:52:19.365Z,68.44
2023-01-29T12:55:08.548Z,67.73
2023-01-29T12:57:52.373Z,68.80
2023-01-29T13:00:34.245Z,70.46
2023-01-29T13:03:19.654Z,69.04
2023-01-29T13:05:50.377Z,68.59
2023-01-29T13:08:27.869Z,68.12
2023-01-29T13:10:58.540Z,68.58
2023-01-29T13:13:36.999Z,67.40
2023-01-29T13:16:12.521Z,66.68
2023-01-29T13:18:53.000Z,67.64
2023-01-29T13:21:29.506Z,66.74
2023-01-29T13:24:03.697Z,66.80
2023-01-29T13:26:32.917Z,66.54
2023-01-29T13:29:02.515Z,69.18
2023-01-29T13:31:34.869Z,69.42
2023-01-29T13:34:24.631Z,70.26
2023-01-29T13:36:56.074Z,70.94
2023-01-29T13:39:32.071Z,70.53
2023-01-29T13:42:03.243Z,71.08
2023-01-29T13:44:39.923Z,72.00
2023-01-29T13:47:11.971Z,72.38
2023-01-29T13:49:56.481Z,73.10
2023-01-29T13:52:58.913Z,72.48
2023-01-29T13:55:32.556Z,71.30
2023-01-29T13:58:02.849Z,71.38
2023-01-29T14:00:34.493Z,72.96
2023-01-29T14:03:08.830Z,72.83
2023-01-29T14:05:55.219Z,73.08
2023-01-29T14:08:36.183Z,72.25
2023-01-29T14:11:13.554Z,70.11
2023-01-29T14:13:44.870Z,72.43
2023-01-29T14:16:12.885Z,71.98
2023-01-29T14:18:53.101Z,72.03
2023-01-29T14:21:36.421Z,72.39
2023-01-29T14:24:21.427Z,72.03
2023-01-29T14:26:54.757Z,70.58
2023-01-29T14:29:34.658Z,71.87
2023-01-29T14:32:06.581Z,72.31
2023-01-29T14:34:59.636Z,72.39
2023-01-29T14:37:39.720Z,72.22
2023-01-29T14:40:30.259Z,73.57
2023-01-29T14:43:06.418Z,72.33
2023-01-29T14:45:38.891Z,71.04
2023-01-29T14:48:10.511Z,72.25
2023-01-29T14:50:50.402Z,71.25
2023-01-29T14:53:59.575Z,72.84
2023-01-29T14:56:31.273Z,71.97
2023-01-29T14:59:14.182Z,70.80
2023-01-29T15:01:48.607Z,71.62
2023-01-29T15:04:39.299Z,71.15
2023-01-29T15:07:10.237Z,72.51
2023-01-29T15:09:54.227Z,72.40
2023-01-29T15:12:47.169Z,71.52
2023-01-29T15:15:27.094Z,71.66
2023-01-29T15:18:05.603Z,72.52
2023-01-29T15:20:40.127Z,72.70
2023-01-29T15:23:30.762Z,72.80
2023-01-29T15:26:01.934Z,75.72
2023-01-29T15:28:33.150Z,74.66
2023-01-29T15:31:04.747Z,73.99
2023-01-29T15:33:35.062Z,74.01
2023-01-29T15:36:09.357Z,75.33
2023-01-29T15:38:37.979Z,75.14
2023-01-29T15:41:21.631Z,72.52
2023-01-29T15:43:58.084Z,71.69
2023-01-29T15:46:36.549Z,71.91
2023-01-29T15:49:19.851Z,72.03
2023-01-29T15:51:49.420Z,72.49
2023-01-29T15:54:18.355Z,73.63
2023-01-29T15:56:56.472Z,73.08
2023-01-29T15:59:28.256Z,72.60
2023-01-29T16:01:57.294Z,73.32
2023-01-29T16:04:31.519Z,73.74
2023-01-29T16:07:01.942Z,74.81
2023-01-29T16:09:31.009Z,73.15
2023-01-29T16:12:00.033Z,74.75
2023-01-29T16:14:30.171Z,74.08
2023-01-29T16:17:11.668Z,75.28
2023-01-29T16:19:40.885Z,74.64
2023-01-29T16:22:09.850Z,74.66
2023-01-29T16:24:39.399Z,73.47
2023-01-29T16:27:13.361Z,73.70
2023-01-29T16:29:42.856Z,73.83
2023-01-29T16:32:13.921Z,73.83
2023-01-29T16:34:48.993Z,73.35
2023-01-29T16:37:28.061Z,73.99
2023-01-29T16:39:57.889Z,75.02
2023-01-29T16:42:28.875Z,75.63
2023-01-29T16:45:05.470Z,75.19
2023-01-29T16:47:33.776Z,74.75
2023-01-29T16:50:02.644Z,74.56
2023-01-29T16:52:35.560Z,74.70
2023-01-29T16:55:21.255Z,76.43
2023-01-29T16:57:56.356Z,73.40
2023-01-29T17:00:28.484Z,74.52
2023-01-29T17:03:04.540Z,75.50
2023-01-29T17:05:37.016Z,75.26
2023-01-29T17:08:07.552Z,73.99
2023-01-29T17:10:36.416Z,74.76
2023-01-29T17:13:15.402Z,76.03
2023-01-29T17:15:47.013Z,76.56
2023-01-29T17:18:25.509Z,77.01
2023-01-29T17:20:54.376Z,76.63
2023-01-29T17:23:23.297Z,76.72
2023-01-29T17:25:51.972Z,77.34
2023-01-29T17:28:20.495Z,76.72
2023-01-29T17:31:04.984Z,76.37
2023-01-29T17:33:43.412Z,76.60
2023-01-29T17:36:14.432Z,77.50
2023-01-29T17:38:45.720Z,77.91
2023-01-29T17:41:28.369Z,77.84
2023-01-29T17:43:57.429Z,77.43
2023-01-29T17:46:27.459Z,79.41
2023-01-29T17:48:55.816Z,80.08
2023-01-29T17:51:25.069Z,79.20
2023-01-29T17:53:53.553Z,79.75
2023-01-29T17:56:29.769Z,79.63
2023-01-29T17:58:59.090Z,80.19
2023-01-29T18:01:27.471Z,79.54
2023-01-29T18:03:56.190Z,80.08
2023-01-29T18:06:30.134Z,80.36
2023-01-29T18:09:22.618Z,79.22
2023-01-29T18:11:52.030Z,79.50
2023-01-29T18:14:20.792Z,79.72
2023-01-29T18:16:49.325Z,79.87
2023-01-29T18:19:23.268Z,80.31
2023-01-29T18:21:52.638Z,80.54
2023-01-29T18:24:21.211Z,80.30
2023-01-29T18:26:51.398Z,79.73
2023-01-29T18:29:20.009Z,80.34
2023-01-29T18:31:49.711Z,81.09
2023-01-29T18:34:19.032Z,81.38
2023-01-29T18:36:47.911Z,81.64
2023-01-29T18:39:17.348Z,80.68
2023-01-29T18:41:46.316Z,81.63
2023-01-29T18:44:14.911Z,80.68
2023-01-29T18:46:44.412Z,81.29
2023-01-29T18:49:13.003Z,82.01
2023-01-29T18:51:41.720Z,81.72
2023-01-29T18:54:12.887Z,81.64
2023-01-29T18:57:08.257Z,81.14
2023-01-29T18:59:31.162Z,81.33
2023-01-29T19:02:01.041Z,81.58
2023-01-29T19:04:29.960Z,80.84
2023-01-29T19:06:58.398Z,80.41
2023-01-29T19:09:27.175Z,81.84
2023-01-29T19:11:55.699Z,82.27
2023-01-29T19:14:24.122Z,82.87
2023-01-29T19:16:53.281Z,83.22
2023-01-29T19:19:21.892Z,82.51
2023-01-29T19:21:52.802Z,82.18
2023-01-29T19:24:22.533Z,81.65
2023-01-29T19:26:51.304Z,83.03
2023-01-29T19:29:20.232Z,82.55
2023-01-29T19:31:50.356Z,82.33
2023-01-29T19:34:19.241Z,82.15
2023-01-29T19:36:47.724Z,81.30
2023-01-29T19:39:17.704Z,80.77
2023-01-29T19:41:46.603Z,81.43
2023-01-29T19:44:15.973Z,81.20
2023-01-29T19:46:47.017Z,80.80
2023-01-29T19:49:15.284Z,81.24
2023-01-29T19:51:44.505Z,81.33
2023-01-29T19:54:13.427Z,81.96
2023-01-29T19:56:41.822Z,81.95
2023-01-29T19:59:11.388Z,81.25
2023-01-29T20:01:40.722Z,82.24
2023-01-29T20:04:09.555Z,81.86
2023-01-29T20:06:38.098Z,81.89
2023-01-29T20:09:07.022Z,79.18
2023-01-29T20:11:35.848Z,78.04
2023-01-29T20:14:04.366Z,78.87
2023-01-29T20:16:32.923Z,80.04
2023-01-29T20:19:14.491Z,78.85
2023-01-29T20:21:51.569Z,79.04
2023-01-29T20:24:20.063Z,80.80
2023-01-29T20:26:49.330Z,81.53
2023-01-29T20:29:18.591Z,82.37
2023-01-29T20:31:47.172Z,82.23
2023-01-29T20:34:16.534Z,82.05
2023-01-29T20:36:44.971Z,81.91
2023-01-29T20:39:13.683Z,81.80
2023-01-29T20:41:42.320Z,81.33
2023-01-29T20:44:10.893Z,81.88
2023-01-29T20:46:39.699Z,83.17
2023-01-29T20:49:08.803Z,83.49
2023-01-29T20:51:38.256Z,82.42
2023-01-29T20:54:08.100Z,82.38
2023-01-29T20:56:42.396Z,82.05
2023-01-29T20:59:13.381Z,82.28
2023-01-29T21:01:42.693Z,82.09
2023-01-29T21:04:10.694Z,81.65
2023-01-29T21:06:39.872Z,82.56
2023-01-29T21:09:08.374Z,82.82
2023-01-29T21:11:36.915Z,82.41
2023-01-29T21:14:06.212Z,83.69
2023-01-29T21:16:34.701Z,83.49
2023-01-29T21:19:03.391Z,83.73
2023-01-29T21:21:32.661Z,84.46
2023-01-29T21:24:01.032Z,82.87
2023-01-29T21:26:29.698Z,82.87
2023-01-29T21:28:58.307Z,81.33
2023-01-29T21:31:26.557Z,83.96
2023-01-29T21:33:54.895Z,84.37
2023-01-29T21:36:23.917Z,84.66
2023-01-29T21:38:52.075Z,85.27
2023-01-29T21:41:40.465Z,85.86
2023-01-29T21:44:09.598Z,86.84
2023-01-29T21:46:38.109Z,86.99
2023-01-29T21:49:06.480Z,87.37
2023-01-29T21:51:35.291Z,87.85
2023-01-29T21:54:03.622Z,88.55
2023-01-29T21:56:31.936Z,88.84
2023-01-29T21:59:01.678Z,88.00
2023-01-29T22:01:37.536Z,88.54
2023-01-29T22:04:09.092Z,89.66
2023-01-29T22:06:37.306Z,89.24
2023-01-29T22:09:05.374Z,89.12
2023-01-29T22:11:34.269Z,89.11
2023-01-29T22:14:02.314Z,89.52
2023-01-29T22:16:30.435Z,87.80
2023-01-29T22:18:59.225Z,87.36
2023-01-29T22:21:27.303Z,88.48
2023-01-29T22:23:55.422Z,86.78
2023-01-29T22:26:24.117Z,87.19
2023-01-29T22:28:52.488Z,86.86
2023-01-29T22:31:20.758Z,87.28
2023-01-29T22:33:49.422Z,87.12
2023-01-29T22:36:17.716Z,87.50
2023-01-29T22:38:46.678Z,85.86
2023-01-29T22:41:15.762Z,85.68
2023-01-29T22:43:44.179Z,84.47
2023-01-29T22:46:12.399Z,84.55
2023-01-29T22:48:41.165Z,84.64
2023-01-29T22:51:10.364Z,84.86
2023-01-29T22:53:44.628Z,84.46
2023-01-29T22:56:13.322Z,84.94
2023-01-29T22:58:42.106Z,84.66
2023-01-29T23:01:10.965Z,84.11
2023-01-29T23:03:39.357Z,84.35
2023-01-29T23:06:07.486Z,84.94
2023-01-29T23:08:35.982Z,84.80
2023-01-29T23:11:15.245Z,85.23
2023-01-29T23:13:54.302Z,85.35
2023-01-29T23:16:27.969Z,86.01
2023-01-29T23:18:57.157Z,85.69
2023-01-29T23:21:27.686Z,86.96
2023-01-29T23:23:58.424Z,87.97
2023-01-29T23:26:47.378Z,87.63
2023-01-29T23:29:16.336Z,87.58
2023-01-29T23:31:44.995Z,87.99
2023-01-29T23:34:14.060Z,87.88
2023-01-29T23:36:42.549Z,88.01
2023-01-29T23:39:11.635Z,88.49
2023-01-29T23:41:39.826Z,89.03
2023-01-29T23:44:08.497Z,89.25
2023-01-29T23:46:36.932Z,88.65
2023-01-29T23:49:05.067Z,88.48
2023-01-29T23:51:33.690Z,87.66
2023-01-29T23:54:02.863Z,87.42
2023-01-29T23:56:31.244Z,89.09
2023-01-29T23:58:59.660Z,89.05
